createdAt,value
2018-05-02T00:02:09.034Z,99.90
2018-05-02T00:04:37.275Z,99.90
2018-05-02T00:07:08.269Z,99.90
2018-05-02T00:09:37.445Z,99.90
2018-05-02T00:12:05.617Z,99.90
2018-05-02T00:14:33.809Z,99.90
2018-05-02T00:17:02.788Z,99.90
2018-05-02T00:19:31.003Z,99.90
2018-05-02T00:21:59.265Z,99.90
2018-05-02T00:24:28.261Z,99.90
2018-05-02T00:26:56.683Z,99.90
2018-05-02T00:29:24.997Z,99.90
2018-05-02T00:31:53.340Z,99.90
2018-05-02T00:34:21.616Z,99.90
2018-05-02T00:36:49.862Z,99.90
2018-05-02T00:39:18.091Z,99.90
2018-05-02T00:41:46.373Z,99.90
2018-05-02T00:44:15.443Z,99.90
2018-05-02T00:46:43.722Z,99.90
2018-05-02T00:49:17.797Z,99.90
2018-05-02T00:51:46.174Z,99.90
2018-05-02T00:54:15.224Z,99.90
2018-05-02T00:56:43.396Z,99.90
2018-05-02T00:59:11.760Z,99.90
2018-05-02T01:01:39.959Z,99.90
2018-05-02T01:04:08.202Z,99.90
2018-05-02T01:06:36.396Z,99.90
2018-05-02T01:09:04.615Z,99.90
2018-05-02T01:11:33.584Z,99.90
2018-05-02T01:14:02.571Z,99.90
2018-05-02T01:16:30.765Z,99.90
2018-05-02T01:18:59.793Z,99.90
2018-05-02T01:21:38.562Z,99.90
2018-05-02T01:24:06.903Z,99.90
2018-05-02T01:26:35.319Z,99.90
2018-05-02T01:29:03.700Z,99.90
2018-05-02T01:31:35.627Z,99.90
2018-05-02T01:34:03.973Z,99.90
2018-05-02T01:36:32.222Z,99.90
2018-05-02T01:39:00.477Z,99.90
2018-05-02T01:41:28.720Z,99.90
2018-05-02T01:43:57.015Z,99.90
2018-05-02T01:46:25.301Z,99.90
2018-05-02T01:49:05.503Z,99.90
2018-05-02T01:51:33.779Z,99.90
2018-05-02T01:54:02.831Z,99.90
2018-05-02T01:56:31.048Z,99.90
2018-05-02T01:58:59.315Z,99.90
2018-05-02T02:01:27.691Z,99.90
2018-05-02T02:03:56.043Z,99.90
2018-05-02T02:06:25.199Z,99.90
2018-05-02T02:08:54.387Z,99.90
2018-05-02T02:11:22.556Z,99.90
2018-05-02T02:13:50.775Z,99.90
2018-05-02T02:16:19.809Z,99.90
2018-05-02T02:18:48.049Z,99.90
2018-05-02T02:21:16.992Z,99.90
2018-05-02T02:23:45.252Z,99.90
2018-05-02T02:26:13.959Z,99.90
2018-05-02T02:28:42.272Z,99.90
2018-05-02T02:31:11.331Z,99.90
2018-05-02T02:33:39.530Z,99.90
2018-05-02T02:36:07.722Z,99.90
2018-05-02T02:38:35.952Z,99.90
2018-05-02T02:41:04.255Z,99.90
2018-05-02T02:49:33.301Z,99.90
2018-05-02T02:52:01.632Z,99.90
2018-05-02T02:54:29.843Z,99.90
2018-05-02T02:56:58.107Z,99.90
2018-05-02T02:59:26.895Z,99.90
2018-05-02T03:01:55.107Z,99.90
2018-05-02T03:04:23.456Z,99.90
2018-05-02T03:06:51.674Z,99.90
2018-05-02T03:09:19.866Z,99.90
2018-05-02T03:11:48.092Z,99.90
2018-05-02T03:14:16.346Z,99.90
2018-05-02T03:16:44.562Z,99.90
2018-05-02T03:19:12.766Z,99.90
2018-05-02T03:21:41.738Z,99.90
2018-05-02T03:24:10.577Z,99.90
2018-05-02T03:26:38.877Z,99.90
2018-05-02T03:29:07.163Z,99.90
2018-05-02T03:31:35.547Z,99.90
2018-05-02T03:34:03.727Z,99.90
2018-05-02T03:36:31.925Z,99.90
2018-05-02T03:39:01.319Z,99.90
2018-05-02T03:41:29.607Z,99.90
2018-05-02T03:43:57.828Z,99.90
2018-05-02T03:46:26.238Z,99.90
2018-05-02T03:48:54.480Z,99.90
2018-05-02T03:51:22.687Z,99.90
2018-05-02T03:53:50.933Z,99.90
2018-05-02T03:56:19.134Z,99.90
2018-05-02T03:58:47.408Z,99.90
2018-05-02T04:01:27.439Z,99.90
2018-05-02T04:04:07.763Z,99.90
2018-05-02T04:09:41.423Z,99.90
2018-05-02T04:12:13.388Z,99.90
2018-05-02T04:14:41.792Z,99.90
2018-05-02T04:17:10.078Z,99.90
2018-05-02T04:19:38.348Z,99.90
2018-05-02T04:22:07.572Z,99.90
2018-05-02T04:24:35.775Z,99.90
2018-05-02T04:27:05.386Z,99.90
2018-05-02T04:29:33.602Z,99.90
2018-05-02T04:32:02.751Z,99.90
2018-05-02T04:34:31.957Z,99.90
2018-05-02T04:37:00.931Z,99.90
2018-05-02T04:39:29.144Z,99.90
2018-05-02T04:41:57.388Z,99.90
2018-05-02T04:44:26.394Z,99.90
2018-05-02T04:46:55.393Z,99.90
2018-05-02T04:49:23.624Z,99.90
2018-05-02T04:51:51.804Z,99.90
2018-05-02T04:54:20.840Z,99.90
2018-05-02T04:56:49.095Z,99.90
2018-05-02T04:59:17.358Z,99.90
2018-05-02T05:01:45.611Z,99.90
2018-05-02T05:04:13.807Z,99.90
2018-05-02T05:06:42.110Z,99.90
2018-05-02T05:09:11.121Z,99.90
2018-05-02T05:11:40.101Z,99.90
2018-05-02T05:14:08.329Z,99.90
2018-05-02T05:16:36.529Z,99.90
2018-05-02T05:19:04.753Z,99.90
2018-05-02T05:21:33.021Z,99.90
2018-05-02T05:24:02.098Z,99.90
2018-05-02T05:26:30.442Z,99.90
2018-05-02T05:28:58.655Z,99.90
2018-05-02T05:31:27.615Z,99.90
2018-05-02T05:33:55.843Z,99.90
2018-05-02T05:36:24.859Z,99.90
2018-05-02T05:38:53.185Z,99.90
2018-05-02T05:41:21.474Z,99.90
2018-05-02T05:43:49.666Z,99.90
2018-05-02T05:46:19.548Z,99.90
2018-05-02T05:48:47.738Z,99.90
2018-05-02T05:51:15.987Z,99.90
2018-05-02T05:53:44.167Z,99.90
2018-05-02T05:56:12.421Z,99.90
2018-05-02T05:58:40.664Z,99.90
2018-05-02T06:01:09.722Z,99.90
2018-05-02T06:03:37.969Z,99.90
2018-05-02T06:06:06.233Z,99.90
2018-05-02T06:08:34.504Z,99.90
2018-05-02T06:11:03.353Z,99.90
2018-05-02T06:13:31.555Z,99.90
2018-05-02T06:15:59.711Z,99.90
2018-05-02T06:18:27.909Z,99.90
2018-05-02T06:20:56.257Z,99.90
2018-05-02T06:23:24.597Z,99.90
2018-05-02T06:25:52.848Z,99.90
2018-05-02T06:28:21.082Z,99.90
2018-05-02T06:30:49.365Z,99.90
2018-05-02T06:33:18.423Z,99.90
2018-05-02T06:35:46.855Z,99.90
2018-05-02T06:38:15.108Z,99.90
2018-05-02T06:40:43.390Z,99.90
2018-05-02T06:43:11.756Z,99.90
2018-05-02T06:45:40.007Z,99.90
2018-05-02T06:48:08.346Z,99.90
2018-05-02T06:50:36.571Z,99.90
2018-05-02T06:53:04.787Z,99.90
2018-05-02T06:55:33.165Z,99.90
2018-05-02T06:58:01.410Z,99.90
2018-05-02T07:00:30.562Z,99.90
2018-05-02T07:02:59.018Z,99.90
2018-05-02T07:05:27.292Z,99.90
2018-05-02T07:07:55.580Z,99.90
2018-05-02T07:10:23.842Z,99.90
2018-05-02T07:12:52.110Z,99.10
2018-05-02T07:15:20.336Z,99.40
2018-05-02T07:17:51.581Z,98.60
2018-05-02T07:20:21.280Z,99.00
2018-05-02T07:22:50.465Z,99.00
2018-05-02T07:25:20.049Z,99.80
2018-05-02T07:27:48.390Z,99.80
2018-05-02T07:30:17.378Z,99.70
2018-05-02T07:32:46.542Z,97.50
2018-05-02T07:35:14.668Z,97.50
2018-05-02T07:37:43.808Z,99.70
2018-05-02T07:40:12.082Z,99.30
2018-05-02T07:42:40.300Z,98.30
2018-05-02T07:45:09.296Z,96.90
2018-05-02T07:47:37.516Z,97.00
2018-05-02T07:50:06.170Z,96.90
2018-05-02T07:52:34.366Z,95.20
2018-05-02T07:55:03.448Z,96.80
2018-05-02T07:57:32.472Z,94.90
2018-05-02T08:00:00.744Z,94.90
2018-05-02T08:02:28.981Z,94.10
2018-05-02T08:04:57.234Z,94.10
2018-05-02T08:07:26.055Z,94.90
2018-05-02T08:09:54.417Z,94.70
2018-05-02T08:12:24.145Z,92.90
2018-05-02T08:14:53.315Z,91.40
2018-05-02T08:17:21.535Z,91.40
2018-05-02T08:19:50.490Z,91.90
2018-05-02T08:22:18.727Z,91.90
2018-05-02T08:24:47.129Z,91.80
2018-05-02T08:27:15.349Z,91.60
2018-05-02T08:29:44.353Z,91.90
2018-05-02T08:32:13.398Z,90.70
2018-05-02T08:34:41.623Z,90.70
2018-05-02T08:37:10.597Z,90.00
2018-05-02T08:39:38.796Z,89.50
2018-05-02T08:42:07.816Z,90.30
2018-05-02T08:44:36.194Z,90.20
2018-05-02T08:47:05.177Z,88.80
2018-05-02T08:49:34.206Z,85.40
2018-05-02T08:52:02.468Z,85.40
2018-05-02T08:54:30.740Z,88.80
2018-05-02T08:56:59.688Z,85.00
2018-05-02T08:59:27.888Z,86.20
2018-05-02T09:01:56.932Z,89.00
2018-05-02T09:04:25.198Z,88.70
2018-05-02T09:06:54.386Z,81.20
2018-05-02T09:09:22.683Z,81.20
2018-05-02T09:11:51.557Z,80.70
2018-05-02T09:14:19.772Z,80.70
2018-05-02T09:16:47.992Z,82.40
2018-05-02T09:19:17.246Z,83.20
2018-05-02T09:21:45.449Z,83.20
2018-05-02T09:24:14.415Z,82.10
2018-05-02T09:26:42.682Z,82.10
2018-05-02T09:29:11.703Z,77.00
2018-05-02T09:31:39.953Z,76.90
2018-05-02T09:34:08.326Z,81.80
2018-05-02T09:36:36.602Z,75.90
2018-05-02T09:39:04.853Z,78.10
2018-05-02T09:41:33.859Z,72.50
2018-05-02T09:44:02.147Z,72.50
2018-05-02T09:46:30.370Z,76.70
2018-05-02T09:48:58.599Z,70.90
2018-05-02T09:51:26.811Z,75.80
2018-05-02T09:53:55.059Z,73.90
2018-05-02T09:56:23.289Z,79.70
2018-05-02T09:58:52.329Z,69.70
2018-05-02T10:01:21.576Z,70.00
2018-05-02T10:03:49.765Z,72.40
2018-05-02T10:06:18.877Z,77.90
2018-05-02T10:08:47.098Z,77.70
2018-05-02T10:11:16.212Z,72.20
2018-05-02T10:13:45.235Z,75.50
2018-05-02T10:16:14.243Z,71.70
2018-05-02T10:18:42.478Z,71.60
2018-05-02T10:21:12.256Z,76.10
2018-05-02T10:23:40.458Z,76.10
2018-05-02T10:26:08.678Z,71.60
2018-05-02T10:28:37.703Z,74.50
2018-05-02T10:31:06.036Z,74.30
2018-05-02T10:33:35.045Z,71.80
2018-05-02T10:36:03.405Z,72.10
2018-05-02T10:38:33.405Z,73.30
2018-05-02T10:41:02.335Z,73.30
2018-05-02T10:43:30.634Z,68.80
2018-05-02T10:45:58.931Z,69.80
2018-05-02T10:48:27.122Z,69.70
2018-05-02T10:50:55.311Z,71.70
2018-05-02T10:53:23.643Z,71.90
2018-05-02T10:55:51.889Z,65.10
2018-05-02T10:58:20.162Z,64.90
2018-05-02T11:00:49.220Z,69.30
2018-05-02T11:03:17.463Z,69.30
2018-05-02T11:05:46.564Z,59.30
2018-05-02T11:08:14.880Z,59.00
2018-05-02T11:10:44.057Z,61.60
2018-05-02T11:13:12.328Z,61.60
2018-05-02T11:15:40.722Z,60.80
2018-05-02T11:18:09.216Z,61.00
2018-05-02T11:20:38.064Z,63.60
2018-05-02T11:23:07.303Z,65.90
2018-05-02T11:25:35.576Z,65.80
2018-05-02T11:28:06.956Z,61.80
2018-05-02T11:30:40.022Z,58.70
2018-05-02T11:33:11.660Z,58.60
2018-05-02T11:35:40.812Z,57.10
2018-05-02T11:38:10.735Z,56.80
2018-05-02T11:40:39.849Z,57.70
2018-05-02T11:43:08.126Z,57.70
2018-05-02T11:45:39.316Z,58.40
2018-05-02T11:48:07.567Z,55.80
2018-05-02T11:50:37.402Z,61.20
2018-05-02T11:53:05.673Z,57.40
2018-05-02T11:55:33.936Z,60.50
2018-05-02T11:58:02.232Z,61.60
2018-05-02T12:00:30.528Z,60.40
2018-05-02T12:03:00.677Z,58.90
2018-05-02T12:05:30.713Z,62.10
2018-05-02T12:08:00.119Z,62.00
2018-05-02T12:10:30.760Z,60.20
2018-05-02T12:12:59.352Z,66.60
2018-05-02T12:15:29.293Z,63.50
2018-05-02T12:18:01.560Z,60.00
2018-05-02T12:20:32.032Z,61.10
2018-05-02T12:23:03.730Z,56.40
2018-05-02T12:25:35.835Z,56.40
2018-05-02T12:28:06.310Z,62.30
2018-05-02T12:30:37.419Z,62.10
2018-05-02T12:33:06.900Z,65.70
2018-05-02T12:35:35.946Z,61.30
2018-05-02T12:38:04.176Z,61.10
2018-05-02T12:40:33.200Z,66.80
2018-05-02T12:43:01.426Z,66.90
2018-05-02T12:45:29.709Z,65.10
2018-05-02T12:47:57.900Z,57.00
2018-05-02T12:50:26.942Z,57.70
2018-05-02T12:52:56.660Z,60.00
2018-05-02T12:55:25.813Z,53.90
2018-05-02T13:01:07.232Z,51.80
2018-05-02T13:03:44.439Z,51.30
2018-05-02T13:06:17.764Z,53.50
2018-05-02T13:08:53.865Z,56.60
2018-05-02T13:11:24.027Z,56.50
2018-05-02T13:13:54.626Z,54.10
2018-05-02T13:16:33.708Z,54.00
2018-05-02T13:19:05.215Z,54.30
2018-05-02T13:21:34.947Z,53.90
2018-05-02T13:24:05.113Z,56.00
2018-05-02T13:26:36.535Z,55.20
2018-05-02T13:29:06.974Z,57.20
2018-05-02T13:31:35.976Z,57.90
2018-05-02T13:34:04.263Z,58.00
2018-05-02T13:36:32.489Z,56.50
2018-05-02T13:39:03.300Z,59.40
2018-05-02T13:41:31.497Z,59.30
2018-05-02T13:44:01.265Z,55.00
2018-05-02T13:46:29.550Z,54.90
2018-05-02T13:48:58.658Z,58.00
2018-05-02T13:51:26.948Z,55.80
2018-05-02T13:53:55.149Z,57.00
2018-05-02T13:56:24.078Z,55.90
2018-05-02T13:58:53.104Z,55.00
2018-05-02T14:01:22.553Z,55.00
2018-05-02T14:03:55.723Z,59.60
2018-05-02T14:06:24.092Z,59.60
2018-05-02T14:08:52.333Z,57.20
2018-05-02T14:11:20.674Z,58.60
2018-05-02T14:13:49.694Z,59.10
2018-05-02T14:16:18.680Z,61.70
2018-05-02T14:18:48.577Z,57.90
2018-05-02T14:21:17.033Z,57.90
2018-05-02T14:23:45.235Z,61.80
2018-05-02T14:26:14.330Z,60.20
2018-05-02T14:28:43.521Z,63.00
2018-05-02T14:31:11.770Z,63.00
2018-05-02T14:33:40.046Z,58.50
2018-05-02T14:36:08.846Z,64.50
2018-05-02T14:38:37.260Z,63.50
2018-05-02T14:41:06.092Z,63.80
2018-05-02T14:43:34.398Z,66.90
2018-05-02T14:46:02.683Z,68.30
2018-05-02T14:48:30.923Z,67.30
2018-05-02T14:50:59.960Z,66.90
2018-05-02T14:53:28.293Z,66.90
2018-05-02T14:55:57.293Z,68.30
2018-05-02T14:58:25.513Z,68.30
2018-05-02T15:00:53.791Z,72.50
2018-05-02T15:03:22.736Z,74.30
2018-05-02T15:05:51.958Z,75.10
2018-05-02T15:08:20.455Z,75.10
2018-05-02T15:10:49.390Z,71.60
2018-05-02T15:13:17.729Z,71.50
2018-05-02T15:15:45.941Z,72.50
2018-05-02T15:18:14.227Z,76.00
2018-05-02T15:20:42.433Z,75.70
2018-05-02T15:23:10.747Z,78.70
2018-05-02T15:25:39.011Z,82.20
2018-05-02T15:28:07.372Z,84.00
2018-05-02T15:30:35.675Z,85.20
2018-05-02T15:33:03.968Z,84.60
2018-05-02T15:35:32.265Z,88.50
2018-05-02T15:38:01.252Z,85.10
2018-05-02T15:40:29.518Z,85.70
2018-05-02T15:42:58.355Z,84.80
2018-05-02T15:45:27.347Z,84.10
2018-05-02T15:47:57.019Z,86.40
2018-05-02T15:56:25.839Z,87.80
2018-05-02T15:58:54.052Z,86.10
2018-05-02T16:01:22.261Z,86.90
2018-05-02T16:03:51.291Z,83.20
2018-05-02T16:06:19.524Z,83.20
2018-05-02T16:08:48.017Z,81.10
2018-05-02T16:11:17.061Z,84.60
2018-05-02T16:13:45.293Z,86.10
2018-05-02T16:16:13.583Z,85.50
2018-05-02T16:18:41.846Z,87.00
2018-05-02T16:21:11.723Z,88.40
2018-05-02T16:23:41.498Z,86.10
2018-05-02T16:26:09.773Z,86.10
2018-05-02T16:28:38.021Z,86.10
2018-05-02T16:31:07.075Z,83.30
2018-05-02T16:33:36.260Z,85.80
2018-05-02T16:36:04.536Z,85.70
2018-05-02T16:38:33.256Z,83.70
2018-05-02T16:41:02.412Z,82.80
2018-05-02T16:43:30.622Z,82.60
2018-05-02T16:45:58.832Z,86.00
2018-05-02T16:48:27.805Z,88.30
2018-05-02T16:50:56.816Z,90.70
2018-05-02T16:53:25.263Z,90.70
2018-05-02T16:55:54.993Z,91.10
2018-05-02T16:58:23.262Z,91.10
2018-05-02T17:00:52.306Z,92.20
2018-05-02T17:03:20.554Z,92.10
2018-05-02T17:05:49.533Z,92.50
2018-05-02T17:08:19.325Z,93.70
2018-05-02T17:10:47.772Z,93.70
2018-05-02T17:13:15.974Z,93.20
2018-05-02T17:15:44.208Z,93.20
2018-05-02T17:18:13.287Z,94.00
2018-05-02T17:20:42.333Z,94.30
2018-05-02T17:23:10.567Z,94.60
2018-05-02T17:25:39.571Z,96.20
2018-05-02T17:28:08.606Z,97.00
2018-05-02T17:30:37.772Z,96.30
2018-05-02T17:33:06.944Z,95.90
2018-05-02T17:35:35.140Z,95.90
2018-05-02T17:38:04.170Z,97.80
2018-05-02T17:40:32.375Z,97.80
2018-05-02T17:43:00.735Z,98.80
2018-05-02T17:45:28.944Z,99.40
2018-05-02T17:47:57.213Z,99.90
2018-05-02T17:50:25.684Z,99.90
2018-05-02T17:52:54.492Z,99.90
2018-05-02T17:55:23.760Z,99.90
2018-05-02T17:57:52.007Z,99.90
2018-05-02T18:00:20.977Z,99.90
2018-05-02T18:02:49.192Z,99.90
2018-05-02T18:05:17.399Z,99.90
2018-05-02T18:07:45.624Z,99.90
2018-05-02T18:10:14.634Z,99.90
2018-05-02T18:12:42.868Z,99.90
2018-05-02T18:15:11.992Z,99.90
2018-05-02T18:17:40.454Z,99.90
2018-05-02T18:20:09.699Z,99.90
2018-05-02T18:22:38.030Z,99.90
2018-05-02T18:25:06.260Z,99.90
2018-05-02T18:27:34.577Z,99.90
2018-05-02T18:30:02.815Z,99.90
2018-05-02T18:32:31.072Z,99.90
2018-05-02T18:35:00.094Z,99.90
2018-05-02T18:37:28.313Z,99.90
2018-05-02T18:39:56.599Z,99.90
2018-05-02T18:42:24.967Z,99.90
2018-05-02T18:44:53.191Z,99.90
2018-05-02T18:47:21.507Z,99.90
2018-05-02T18:49:49.727Z,99.90
2018-05-02T18:52:18.157Z,99.90
2018-05-02T18:54:47.244Z,99.90
2018-05-02T18:57:15.497Z,99.90
2018-05-02T18:59:43.843Z,99.90
2018-05-02T19:02:12.311Z,99.90
2018-05-02T19:04:40.782Z,99.90
2018-05-02T19:07:09.035Z,99.90
2018-05-02T19:09:37.240Z,99.90
2018-05-02T19:12:06.075Z,99.90
2018-05-02T19:14:34.391Z,99.90
2018-05-02T19:17:02.647Z,99.90
2018-05-02T19:19:36.750Z,99.90
2018-05-02T19:22:05.042Z,99.90
2018-05-02T19:24:39.106Z,99.90
2018-05-02T19:27:07.562Z,99.90
2018-05-02T19:29:36.705Z,99.90
2018-05-02T19:32:11.424Z,99.90
2018-05-02T19:34:40.702Z,99.90
2018-05-02T19:37:09.475Z,99.90
2018-05-02T19:39:44.260Z,99.90
2018-05-02T19:42:18.418Z,99.90
2018-05-02T19:44:47.868Z,99.90
2018-05-02T19:47:16.766Z,99.90
2018-05-02T19:49:47.221Z,99.90
2018-05-02T19:55:22.139Z,99.90
2018-05-02T19:57:50.392Z,99.90
2018-05-02T20:00:24.533Z,99.90
2018-05-02T20:03:02.082Z,99.90
2018-05-02T20:05:30.679Z,99.90
2018-05-02T20:07:59.104Z,99.90
2018-05-02T20:10:35.512Z,99.90
2018-05-02T20:13:09.636Z,99.90
2018-05-02T20:15:37.897Z,99.90
2018-05-02T20:18:06.426Z,99.90
2018-05-02T20:20:34.672Z,99.90
2018-05-02T20:23:06.866Z,99.90
2018-05-02T20:25:36.134Z,99.90
2018-05-02T20:28:04.393Z,99.90
2018-05-02T20:30:33.529Z,99.90
2018-05-02T20:33:02.621Z,99.90
2018-05-02T20:35:32.229Z,99.90
2018-05-02T20:38:00.464Z,99.90
2018-05-02T20:40:30.757Z,99.90
2018-05-02T20:42:58.941Z,99.90
2018-05-02T20:45:29.583Z,99.90
2018-05-02T20:47:57.791Z,99.90
2018-05-02T20:50:26.053Z,99.90
2018-05-02T20:52:54.317Z,99.90
2018-05-02T20:55:22.741Z,99.90
2018-05-02T20:57:51.269Z,99.90
2018-05-02T21:00:19.639Z,99.90
2018-05-02T21:02:48.625Z,99.90
2018-05-02T21:05:16.869Z,99.90
2018-05-02T21:07:45.080Z,99.90
2018-05-02T21:10:13.288Z,99.90
2018-05-02T21:12:41.558Z,99.90
2018-05-02T21:15:10.557Z,99.90
2018-05-02T21:17:38.861Z,99.90
2018-05-02T21:20:07.100Z,99.90
2018-05-02T21:22:36.902Z,99.90
2018-05-02T21:25:05.075Z,99.90
2018-05-02T21:27:33.367Z,99.90
2018-05-02T21:30:01.681Z,99.90
2018-05-02T21:32:29.951Z,99.90
2018-05-02T21:34:59.438Z,99.90
2018-05-02T21:37:28.521Z,99.90
2018-05-02T21:39:56.735Z,99.90
2018-05-02T21:42:25.056Z,99.90
2018-05-02T21:44:53.248Z,99.90
2018-05-02T21:47:21.570Z,99.90
2018-05-02T21:49:50.602Z,99.90
2018-05-02T21:52:18.808Z,99.90
2018-05-02T21:54:46.996Z,99.90
2018-05-02T21:57:16.064Z,99.90
2018-05-02T21:59:44.374Z,99.90
2018-05-02T22:02:12.643Z,99.90
2018-05-02T22:04:41.018Z,99.90
2018-05-02T22:07:09.263Z,99.90
2018-05-02T22:09:37.440Z,99.90
2018-05-02T22:12:05.725Z,99.90
2018-05-02T22:14:35.539Z,99.90
2018-05-02T22:17:06.160Z,99.90
2018-05-02T22:19:34.418Z,99.90
2018-05-02T22:22:02.646Z,99.90
2018-05-02T22:24:30.857Z,99.90
2018-05-02T22:26:59.871Z,99.90
2018-05-02T22:29:28.116Z,99.90
2018-05-02T22:31:57.294Z,99.90
2018-05-02T22:34:26.385Z,99.90
2018-05-02T22:36:55.396Z,99.90
2018-05-02T22:39:24.421Z,99.90
2018-05-02T22:41:53.400Z,99.90
2018-05-02T22:44:21.709Z,99.90
2018-05-02T22:46:49.891Z,99.90
2018-05-02T22:49:18.860Z,99.90
2018-05-02T22:51:47.268Z,99.90
2018-05-02T22:54:15.472Z,99.90
2018-05-02T22:56:45.190Z,99.90
2018-05-02T22:59:13.378Z,99.90
2018-05-02T23:01:41.810Z,99.90
2018-05-02T23:04:10.008Z,99.90
2018-05-02T23:06:38.381Z,99.90
2018-05-02T23:09:06.587Z,99.90
2018-05-02T23:11:36.210Z,99.90
2018-05-02T23:14:04.456Z,99.90
2018-05-02T23:16:32.742Z,99.90
2018-05-02T23:19:00.978Z,99.90
2018-05-02T23:21:29.157Z,99.90
2018-05-02T23:23:57.632Z,99.90
2018-05-02T23:26:25.933Z,99.90
2018-05-02T23:28:54.208Z,99.90
2018-05-02T23:31:22.618Z,99.90
2018-05-02T23:33:51.001Z,99.90
2018-05-02T23:36:19.197Z,99.90
2018-05-02T23:38:48.168Z,99.90
2018-05-02T23:41:16.450Z,99.90
2018-05-02T23:43:44.855Z,99.90
2018-05-02T23:46:13.801Z,99.90
2018-05-02T23:48:42.179Z,99.90
2018-05-02T23:51:10.559Z,99.90
2018-05-02T23:53:38.773Z,99.90
2018-05-02T23:56:07.835Z,99.90
2018-05-02T23:58:36.781Z,99.90
